Laguna de Duero, Spain
Current Conditions -  °F | °C
As of 7:30 PM on Wednesday 26 Nov 2014 (Local Time) from LEVD Reporting Station
Scattered Clouds Scattered Clouds  
Wind Chill:   Ceiling: Unl
Heat Index:   Visibility: 6mi
Dew Point:   Wind: 0mph
Humidity: 93%   Direction: NA
Pressure: 29.8"   Gusts: NA
Location:  41.58°N, 4.72°W
Report Text: LEVD 261830Z 00000KT 9999 SCT030 08/07 Q1009
Loading
Personal Weather Stations






























Interactive Weather Map New forecast layout! Learn more

10-Day Weather Forecast

Advertisements
Track Severe Weather on mobile